Time;durP1;ratioP1;P1;durP2;ratioP2;P2;SDS_P1;SDS_P2;PMS_P1;PMS_P2;Temp;Humidity;BMP_temperature;BMP_pressure;BME280_temperature;BME280_humidity;BME280_pressure;Samples;Min_cycle;Max_cycle;Signal;HPM_P1;HPM_P2
2022/10/18 00:01:45;;;;;;;13.72;8.48;;;;;;;14.18;63.52;101115.23;2131751;83;21074;-73
2022/10/18 00:04:46;;;;;;;11.53;7.72;;;;;;;14.08;63.80;101108.73;2129117;83;21573;-74
2022/10/18 00:07:47;;;;;;;13.20;7.50;;;;;;;13.92;64.23;101108.71;2137733;83;20978;-74
2022/10/18 00:10:49;;;;;;;9.45;7.05;;;;;;;13.83;64.51;101108.70;2128877;83;21513;-80
2022/10/18 00:13:50;;;;;;;13.53;8.40;;;;;;;13.73;64.73;101106.66;2128883;83;21021;-74
2022/10/18 00:16:51;;;;;;;11.03;7.85;;;;;;;13.68;64.85;101112.50;2123650;83;21090;-75
2022/10/18 00:19:52;;;;;;;14.25;7.90;;;;;;;13.57;65.01;101117.28;2111583;83;21035;-74
2022/10/18 00:22:53;;;;;;;11.88;7.95;;;;;;;13.47;65.30;101125.42;2102519;83;21047;-74
2022/10/18 00:26:05;;;;;;;14.40;7.62;;;;;;;13.41;65.53;101118.91;2099616;83;21031;-74
2022/10/18 00:29:06;;;;;;;11.20;8.10;;;;;;;13.36;65.80;101113.72;2099475;83;21020;-74
2022/10/18 00:32:10;;;;;;;14.33;8.50;;;;;;;13.31;65.91;101117.36;2102527;83;21047;-75
2022/10/18 00:35:11;;;;;;;18.20;8.23;;;;;;;13.28;66.04;101121.17;2108468;83;21530;-74
2022/10/18 00:38:12;;;;;;;11.50;7.85;;;;;;;13.27;66.08;101118.19;2113182;83;21339;-74
2022/10/18 00:41:17;;;;;;;14.07;8.25;;;;;;;13.22;66.29;101119.13;2117716;83;21551;-75
2022/10/18 00:44:30;;;;;;;13.08;8.63;;;;;;;13.14;66.45;101113.75;2110014;83;21637;-74
2022/10/18 00:47:34;;;;;;;19.95;8.15;;;;;;;13.11;66.66;101110.08;2106175;83;21079;-76
2022/10/18 00:50:35;;;;;;;12.33;8.68;;;;;;;13.01;66.76;101111.04;2114870;83;21074;-76
2022/10/18 00:53:37;;;;;;;14.13;8.15;;;;;;;12.97;66.97;101114.99;2110482;83;21020;-76
2022/10/18 00:56:38;;;;;;;13.58;7.58;;;;;;;12.97;67.17;101112.83;2108108;83;21052;-75
2022/10/18 00:59:40;;;;;;;15.18;7.85;;;;;;;12.98;67.34;101115.86;2108625;83;21075;-77
2022/10/18 01:02:45;;;;;;;13.03;8.03;;;;;;;12.98;67.27;101102.03;2107440;83;21068;-76
2022/10/18 01:05:47;;;;;;;12.80;7.35;;;;;;;12.98;67.28;101107.36;2121828;83;21069;-80
2022/10/18 01:09:09;;;;;;;8.93;7.42;;;;;;;12.94;67.33;101099.83;2108574;83;21078;-76
2022/10/18 01:12:34;;;;;;;15.70;7.58;;;;;;;12.97;67.35;101095.02;2106004;83;21039;-76
2022/10/18 01:15:56;;;;;;;9.35;7.15;;;;;;;13.00;67.34;101097.36;2093514;84;21149;-75
2022/10/18 01:19:14;;;;;;;11.33;7.17;;;;;;;13.03;67.35;101102.87;2068237;84;21113;-74
2022/10/18 01:22:27;;;;;;;12.10;7.17;;;;;;;13.07;67.30;101094.09;2128174;82;21108;-76
2022/10/18 01:26:01;;;;;;;13.65;6.92;;;;;;;13.08;67.26;101094.41;2114119;82;21390;-75
2022/10/18 01:29:55;;;;;;;12.90;6.65;;;;;;;13.11;67.28;101090.92;2135097;82;21013;-76
2022/10/18 01:33:06;;;;;;;9.85;6.42;;;;;;;13.14;67.25;101089.77;2134132;82;21046;-74
2022/10/18 01:36:30;;;;;;;12.25;7.25;;;;;;;13.20;67.28;101088.63;2127745;82;21529;-75
2022/10/18 01:39:37;;;;;;;12.98;6.22;;;;;;;13.24;67.22;101086.49;2134160;82;21562;-75
2022/10/18 01:42:39;;;;;;;9.38;7.08;;;;;;;13.30;67.22;101081.05;2130459;82;20998;-74
2022/10/18 01:45:41;;;;;;;16.90;8.08;;;;;;;13.32;67.22;101083.89;2133058;82;21049;-75
2022/10/18 01:48:43;;;;;;;9.18;7.30;;;;;;;13.37;67.20;101084.22;2123137;82;21022;-75
2022/10/18 01:51:44;;;;;;;15.35;8.18;;;;;;;13.39;67.19;101076.08;2133084;82;21588;-74
2022/10/18 01:54:47;;;;;;;20.50;8.68;;;;;;;13.42;67.12;101072.58;2084372;84;21045;-80
2022/10/18 01:57:57;;;;;;;14.93;8.28;;;;;;;13.42;67.04;101067.25;2086085;84;21093;-74
2022/10/18 02:01:31;;;;;;;12.65;8.60;;;;;;;13.41;67.01;101062.09;2083019;84;21035;-74
2022/10/18 02:04:52;;;;;;;8.78;6.75;;;;;;;13.39;67.01;101065.41;2063730;86;21030;-75
2022/10/18 02:08:11;;;;;;;9.23;5.95;;;;;;;13.36;66.96;101059.91;2060001;85;21007;-74
2022/10/18 02:11:15;;;;;;;;;;;;;;;13.35;66.93;101058.25;2068145;84;21538;-73
2022/10/18 02:14:18;;;;;;;14.38;6.47;;;;;;;13.33;66.90;101068.73;2087085;84;20190;-76
2022/10/18 02:17:20;;;;;;;11.10;6.60;;;;;;;13.27;66.90;101072.88;2059220;86;21089;-74
2022/10/18 02:20:25;;;;;;;12.25;7.67;;;;;;;13.22;66.97;101071.16;2089180;84;22367;-74
2022/10/18 02:23:26;;;;;;;10.82;7.25;;;;;;;13.21;67.01;101078.82;2105345;83;21076;-74
2022/10/18 02:26:27;;;;;;;12.70;7.55;;;;;;;13.18;67.02;101081.31;2130621;83;22337;-73
2022/10/18 02:29:30;;;;;;;11.73;7.95;;;;;;;13.09;67.06;101076.09;2131505;83;21568;-74
2022/10/18 02:32:39;;;;;;;10.00;8.40;;;;;;;12.92;67.21;101074.70;2123999;83;21371;-74
2022/10/18 02:35:48;;;;;;;14.90;7.93;;;;;;;12.80;67.45;101073.28;2130142;83;21018;-75
2022/10/18 02:38:55;;;;;;;13.15;7.85;;;;;;;12.72;67.65;101074.56;2121462;83;21053;-74
2022/10/18 02:41:57;;;;;;;11.65;7.22;;;;;;;12.63;67.83;101078.17;2127155;83;21097;-74
2022/10/18 02:44:58;;;;;;;10.28;7.60;;;;;;;12.55;67.98;101078.45;2132695;83;21021;-74
2022/10/18 02:47:59;;;;;;;11.80;7.75;;;;;;;12.48;68.10;101076.09;2126214;83;21093;-77
2022/10/18 02:51:00;;;;;;;13.15;7.90;;;;;;;12.32;68.34;101077.30;2130662;83;21094;-74
2022/10/18 02:54:01;;;;;;;9.80;7.33;;;;;;;12.22;68.54;101080.53;2126712;83;21061;-74
2022/10/18 02:57:01;;;;;;;15.00;8.25;;;;;;;12.06;68.83;101073.27;2128366;83;20962;-74
2022/10/18 03:00:05;;;;;;;12.37;7.78;;;;;;;11.93;69.12;101068.81;2130532;83;21017;-74
2022/10/18 03:03:06;;;;;;;14.60;8.00;;;;;;;11.84;69.27;101083.83;2135369;83;21009;-74
2022/10/18 03:06:07;;;;;;;13.38;8.43;;;;;;;11.71;69.47;101086.84;2129758;83;21014;-74
2022/10/18 03:09:09;;;;;;;21.45;8.43;;;;;;;11.63;69.65;101077.48;2133623;83;21112;-73
2022/10/18 03:12:10;;;;;;;14.90;8.25;;;;;;;11.56;69.78;101080.39;2132495;83;21053;-73
2022/10/18 03:15:11;;;;;;;9.58;7.80;;;;;;;11.50;69.99;101087.14;2127898;83;21005;-75
2022/10/18 03:18:12;;;;;;;9.80;7.17;;;;;;;11.49;69.93;101086.80;2091512;84;21066;-74
2022/10/18 03:21:13;;;;;;;12.82;7.40;;;;;;;11.38;69.73;101087.01;2093852;83;21030;-74
2022/10/18 03:24:14;;;;;;;12.13;6.72;;;;;;;11.31;69.91;101091.23;2089634;84;21049;-74
2022/10/18 03:27:15;;;;;;;17.92;8.78;;;;;;;11.27;69.95;101089.36;2094464;84;21647;-73
2022/10/18 03:30:17;;;;;;;11.00;7.20;;;;;;;11.25;70.21;101101.13;2090414;84;21065;-74
2022/10/18 03:33:18;;;;;;;13.22;8.68;;;;;;;11.24;70.36;101101.62;2090585;84;21106;-75
2022/10/18 03:36:19;;;;;;;16.12;8.00;;;;;;;11.18;70.50;101104.37;2086083;84;21057;-73
2022/10/18 03:39:20;;;;;;;12.20;8.93;;;;;;;11.10;70.86;101092.81;2096761;84;21014;-76
2022/10/18 03:42:21;;;;;;;10.15;7.95;;;;;;;11.02;71.15;101109.46;2096152;84;21081;-79
2022/10/18 03:45:22;;;;;;;10.45;7.60;;;;;;;10.85;71.30;101104.42;2095980;84;21030;-74
2022/10/18 03:48:23;;;;;;;12.65;6.95;;;;;;;10.75;71.50;101113.72;2081340;83;21604;-77
2022/10/18 03:51:24;;;;;;;11.30;6.97;;;;;;;10.66;71.51;101111.94;2096098;84;21030;-80
2022/10/18 03:54:25;;;;;;;15.15;7.80;;;;;;;10.60;71.36;101114.33;2093461;84;21053;-73
2022/10/18 03:57:26;;;;;;;15.75;7.67;;;;;;;10.49;71.47;101112.67;2092831;84;21050;-74
2022/10/18 04:00:27;;;;;;;15.05;7.60;;;;;;;10.43;71.53;101107.94;2091928;84;21037;-74
2022/10/18 04:03:28;;;;;;;10.45;6.70;;;;;;;10.37;71.60;101109.83;2089618;84;21006;-73
2022/10/18 04:06:29;;;;;;;16.87;8.93;;;;;;;10.29;71.60;101114.01;2092613;84;21103;-74
2022/10/18 04:09:30;;;;;;;13.38;8.73;;;;;;;10.27;72.13;101114.63;2089515;84;21510;-75
2022/10/18 04:12:32;;;;;;;15.23;8.43;;;;;;;10.21;72.29;101113.84;2094147;84;21145;-74
2022/10/18 04:15:33;;;;;;;10.68;7.92;;;;;;;10.13;72.33;101107.06;2090030;83;21406;-74
2022/10/18 04:18:34;;;;;;;13.88;8.03;;;;;;;10.09;72.34;101111.82;2124732;83;20975;-74
2022/10/18 04:21:35;;;;;;;10.70;8.33;;;;;;;10.08;72.42;101110.66;2133291;83;21038;-79
2022/10/18 04:24:37;;;;;;;11.73;9.00;;;;;;;10.05;72.89;101113.55;2131365;83;21078;-74
2022/10/18 04:27:38;;;;;;;18.70;9.63;;;;;;;9.94;73.11;101115.88;2127679;83;21037;-74
2022/10/18 04:30:39;;;;;;;11.28;7.75;;;;;;;9.86;73.31;101125.00;2129978;83;20966;-75
2022/10/18 04:33:40;;;;;;;13.38;7.53;;;;;;;9.83;73.12;101121.30;2133882;83;21489;-75
2022/10/18 04:36:41;;;;;;;14.80;8.03;;;;;;;9.77;72.97;101113.41;2130724;83;21030;-74
2022/10/18 04:39:45;;;;;;;9.90;7.33;;;;;;;9.77;73.08;101114.73;2136053;83;21065;-74
2022/10/18 04:42:45;;;;;;;15.48;8.85;;;;;;;9.74;73.00;101111.50;2126463;83;21128;-73
2022/10/18 04:45:47;;;;;;;12.00;9.08;;;;;;;9.72;73.38;101114.30;2126273;83;20965;-76
2022/10/18 04:48:48;;;;;;;16.93;9.10;;;;;;;9.62;73.64;101106.81;2129436;83;21064;-76
2022/10/18 04:51:49;;;;;;;19.12;9.38;;;;;;;9.33;74.09;101097.48;2131850;83;20978;-73
2022/10/18 04:54:50;;;;;;;13.10;8.40;;;;;;;9.33;74.09;101097.48;2125733;83;21065;-72
2022/10/18 04:57:52;;;;;;;16.75;8.63;;;;;;;9.43;74.05;101111.11;2129319;83;20963;-72
2022/10/18 05:00:53;;;;;;;11.08;8.08;;;;;;;9.35;73.97;101109.61;2132402;83;21041;-71
2022/10/18 05:03:55;;;;;;;12.05;7.90;;;;;;;9.33;74.00;101106.25;2131140;83;22857;-73
2022/10/18 05:06:56;;;;;;;10.53;8.20;;;;;;;9.33;73.95;101107.58;2134343;83;20982;-72
2022/10/18 05:09:57;;;;;;;14.98;8.50;;;;;;;9.27;74.15;101109.45;2129452;83;21033;-74
2022/10/18 05:12:58;;;;;;;16.82;9.48;;;;;;;9.25;74.43;101107.41;2131363;83;21041;-72
2022/10/18 05:16:01;;;;;;;15.50;8.95;;;;;;;9.23;74.63;101108.52;2127097;83;21210;-74
2022/10/18 05:19:04;;;;;;;12.53;8.83;;;;;;;9.24;74.66;101107.06;2105990;83;21130;-71
2022/10/18 05:22:05;;;;;;;27.00;11.73;;;;;;;9.20;74.69;101113.59;2095118;84;21056;-73
2022/10/18 05:25:07;;;;;;;26.90;11.48;;;;;;;9.21;76.24;101111.31;2122829;82;21014;-81
2022/10/18 05:28:09;;;;;;;17.23;10.45;;;;;;;9.64;78.23;101107.03;2128834;82;21083;-72
2022/10/18 05:31:11;;;;;;;11.95;8.05;;;;;;;9.95;76.70;101105.61;2120604;82;21489;-71
2022/10/18 05:34:12;;;;;;;16.90;7.97;;;;;;;9.90;75.70;101110.48;2115010;82;20973;-71
2022/10/18 05:37:13;;;;;;;17.02;7.55;;;;;;;9.81;75.19;101105.52;2114445;82;21431;-72
2022/10/18 05:40:15;;;;;;;13.58;8.35;;;;;;;9.56;75.08;101072.92;2116799;82;21415;-70
2022/10/18 05:43:19;;;;;;;16.35;8.28;;;;;;;9.73;75.12;101107.19;2115208;82;21051;-71
2022/10/18 05:46:20;;;;;;;10.58;7.35;;;;;;;9.71;75.43;101104.66;2121392;82;21570;-71
2022/10/18 05:49:21;;;;;;;10.68;6.42;;;;;;;9.74;75.52;101103.55;2117226;82;20987;-72
2022/10/18 05:52:22;;;;;;;12.05;7.53;;;;;;;9.76;75.33;101103.77;2122126;82;21011;-71
2022/10/18 05:55:23;;;;;;;9.05;7.10;;;;;;;9.79;75.58;101108.79;2118693;82;21117;-71
2022/10/18 05:58:24;;;;;;;11.03;7.62;;;;;;;9.79;75.58;101108.79;2114940;82;21074;-73
2022/10/18 06:01:25;;;;;;;11.25;7.55;;;;;;;9.81;75.59;101111.31;2121569;82;21057;-73
2022/10/18 06:04:26;;;;;;;12.47;7.80;;;;;;;9.77;75.70;101113.41;2117969;82;21071;-71
2022/10/18 06:07:27;;;;;;;10.58;8.38;;;;;;;9.86;75.98;101109.09;2115174;82;21644;-72
2022/10/18 06:10:28;;;;;;;13.32;7.83;;;;;;;9.91;75.90;101108.66;2109794;82;22227;-72
2022/10/18 06:13:29;;;;;;;12.00;8.28;;;;;;;9.93;75.99;101108.05;2126724;82;21027;-72
2022/10/18 06:16:30;;;;;;;11.93;7.25;;;;;;;9.89;76.13;101091.59;2125067;82;21077;-72
2022/10/18 06:19:31;;;;;;;11.93;7.15;;;;;;;10.13;76.34;101108.89;2131883;82;20987;-72
2022/10/18 06:22:33;;;;;;;14.78;7.92;;;;;;;10.38;76.56;101111.49;2129281;82;21521;-72
2022/10/18 06:25:34;;;;;;;12.00;7.60;;;;;;;10.67;76.70;101112.30;2132525;82;21437;-75
2022/10/18 06:28:36;;;;;;;17.80;10.82;;;;;;;11.15;76.88;101109.11;2132135;82;21021;-72
2022/10/18 06:31:38;;;;;;;17.70;9.95;;;;;;;11.54;76.45;101126.20;2126751;82;21070;-73
2022/10/18 06:34:39;;;;;;;15.83;8.78;;;;;;;11.90;76.35;101128.46;2123414;82;21394;-72
2022/10/18 06:37:40;;;;;;;23.77;9.20;;;;;;;12.28;76.48;101127.84;2126423;82;20975;-73
2022/10/18 06:40:47;;;;;;;20.70;11.20;;;;;;;12.77;76.35;101122.88;2123750;82;21049;-73
2022/10/18 06:43:50;;;;;;;15.48;9.75;;;;;;;13.23;75.96;101122.11;2132307;82;21025;-73
2022/10/18 06:46:52;;;;;;;20.57;10.72;;;;;;;13.71;75.49;101127.31;2131680;82;21061;-72
2022/10/18 06:49:53;;;;;;;11.93;9.05;;;;;;;14.07;74.66;101121.73;2128904;82;21070;-73
2022/10/18 06:52:54;;;;;;;17.60;9.75;;;;;;;14.27;74.42;101119.06;2129253;82;21013;-73
2022/10/18 06:56:01;;;;;;;18.50;9.68;;;;;;;14.44;73.67;101117.73;2133716;81;21061;-81
2022/10/18 06:59:03;;;;;;;16.95;7.87;;;;;;;14.57;73.51;101112.25;2126184;82;21036;-73
2022/10/18 07:02:05;;;;;;;15.00;9.03;;;;;;;14.82;73.46;101116.73;2126072;82;21623;-74
2022/10/18 07:05:08;;;;;;;12.70;8.53;;;;;;;15.13;73.01;101112.30;2123415;82;21057;-73
2022/10/18 07:08:09;;;;;;;17.25;9.18;;;;;;;15.41;72.41;101113.20;2125372;82;21085;-73
2022/10/18 07:11:24;;;;;;;13.95;8.85;;;;;;;15.67;72.18;101111.55;2128946;82;20991;-73
2022/10/18 07:14:25;;;;;;;12.70;8.33;;;;;;;15.95;71.88;101109.23;2125657;81;21276;-74
2022/10/18 07:17:27;;;;;;;11.95;8.63;;;;;;;16.19;70.95;101111.40;2132725;82;21113;-73
2022/10/18 07:20:28;;;;;;;15.63;8.45;;;;;;;16.26;70.59;101107.00;2134714;82;21437;-73
2022/10/18 07:23:32;;;;;;;12.23;7.87;;;;;;;16.32;70.30;101111.63;2128190;82;21009;-73
2022/10/18 07:26:35;;;;;;;11.85;8.10;;;;;;;16.44;70.12;101107.50;2139771;82;21072;-73
2022/10/18 07:29:39;;;;;;;14.95;9.03;;;;;;;16.71;70.23;101107.94;2133580;82;21100;-77
2022/10/18 07:32:40;;;;;;;14.47;9.15;;;;;;;17.10;69.82;101106.88;2130726;82;21105;-75
2022/10/18 07:35:42;;;;;;;13.30;8.98;;;;;;;17.37;69.19;101106.22;2129721;82;21038;-75
2022/10/18 07:38:43;;;;;;;16.48;8.58;;;;;;;17.60;68.64;101111.95;2129891;82;21037;-73
2022/10/18 07:41:44;;;;;;;11.70;8.68;;;;;;;17.73;68.24;101117.45;2126649;82;21030;-73
2022/10/18 07:44:46;;;;;;;15.15;8.50;;;;;;;17.84;67.52;101118.84;2126824;82;21053;-73
2022/10/18 07:47:47;;;;;;;12.88;8.25;;;;;;;18.11;67.31;101118.62;2134486;82;21175;-73
2022/10/18 07:50:48;;;;;;;14.98;8.68;;;;;;;18.39;66.83;101118.66;2129605;82;21032;-74
2022/10/18 07:53:49;;;;;;;14.53;8.30;;;;;;;18.54;66.14;101126.12;2132392;82;21026;-74
2022/10/18 07:56:50;;;;;;;9.55;7.58;;;;;;;18.71;65.78;101122.63;2127373;82;21321;-74
2022/10/18 07:59:55;;;;;;;13.15;7.67;;;;;;;18.81;64.86;101119.13;2127746;82;21544;-79
2022/10/18 08:02:58;;;;;;;13.62;8.23;;;;;;;19.02;64.70;101122.23;2129499;82;21081;-73
2022/10/18 08:06:00;;;;;;;11.50;7.50;;;;;;;19.33;64.27;101116.91;2133658;82;21489;-77
2022/10/18 08:09:01;;;;;;;12.23;8.15;;;;;;;19.57;61.79;101118.27;2134433;82;21001;-72
2022/10/18 08:12:02;;;;;;;11.75;8.08;;;;;;;19.68;62.67;101116.38;2129538;82;21415;-72
2022/10/18 08:15:04;;;;;;;12.63;8.53;;;;;;;19.82;62.53;101116.39;2134980;82;21634;-73
2022/10/18 08:18:05;;;;;;;11.63;8.20;;;;;;;20.03;62.29;101110.84;2088405;82;21010;-74
2022/10/18 08:21:08;;;;;;;14.15;8.65;;;;;;;20.27;61.68;101115.32;2123387;82;21034;-73
2022/10/18 08:24:09;;;;;;;14.78;8.25;;;;;;;20.45;60.99;101105.28;2122131;82;21670;-74
2022/10/18 08:27:10;;;;;;;15.83;8.85;;;;;;;20.56;60.71;101105.52;2117555;82;20991;-74
2022/10/18 08:30:13;;;;;;;13.30;8.48;;;;;;;20.78;60.49;101100.72;2123993;82;21097;-79
2022/10/18 08:33:14;;;;;;;15.13;9.13;;;;;;;21.14;60.01;101091.27;2128137;82;20962;-74
2022/10/18 08:36:18;;;;;;;11.48;7.92;;;;;;;21.36;58.86;101079.66;2123767;82;21116;-73
2022/10/18 08:39:19;;;;;;;16.05;8.78;;;;;;;21.54;58.25;101081.70;2124137;82;21099;-75
2022/10/18 08:42:56;;;;;;;22.67;9.18;;;;;;;21.60;58.23;101071.91;2127613;82;21006;-72
2022/10/18 08:45:58;;;;;;;10.23;8.28;;;;;;;21.88;58.25;101080.45;2121982;82;21042;-72
2022/10/18 08:49:03;;;;;;;14.07;9.08;;;;;;;22.10;57.31;101070.62;2124737;82;21177;-76
2022/10/18 08:52:12;;;;;;;13.18;9.70;;;;;;;22.23;57.03;101063.80;2119568;82;21049;-73
2022/10/18 08:55:28;;;;;;;11.88;8.70;;;;;;;22.38;55.91;101051.28;2106656;82;21008;-73
2022/10/18 08:58:32;;;;;;;13.75;8.45;;;;;;;22.43;55.76;101051.98;2126893;82;20978;-73
2022/10/18 09:01:51;;;;;;;13.28;9.80;;;;;;;22.56;55.83;101053.22;2126255;82;20989;-80
2022/10/18 09:05:18;;;;;;;15.45;9.70;;;;;;;22.57;55.49;101048.09;2126707;82;21098;-73
2022/10/18 09:08:48;;;;;;;18.07;9.20;;;;;;;22.62;53.90;101053.66;2125884;82;21811;-74
2022/10/18 09:12:12;;;;;;;14.28;9.18;;;;;;;22.48;53.99;101042.16;2125789;82;21470;-75
2022/10/18 09:15:46;;;;;;;16.70;9.58;;;;;;;22.50;54.25;101042.77;2122815;82;20999;-73
2022/10/18 09:19:18;;;;;;;12.73;9.50;;;;;;;22.49;54.34;101044.33;2131370;82;21085;-74
2022/10/18 09:22:26;;;;;;;11.43;8.83;;;;;;;22.53;54.07;101037.44;2129530;82;21544;-73
2022/10/18 09:25:47;;;;;;;14.30;10.10;;;;;;;22.51;53.37;101034.13;2128512;82;21427;-78
2022/10/18 09:29:03;;;;;;;14.50;8.80;;;;;;;22.53;53.51;101035.55;2126612;82;21048;-73
2022/10/18 09:32:22;;;;;;;14.98;9.83;;;;;;;22.65;53.77;101032.93;2129977;82;21129;-73
2022/10/18 09:35:30;;;;;;;22.25;10.20;;;;;;;22.88;53.97;101025.48;2132587;82;21121;-73
2022/10/18 09:38:44;;;;;;;16.32;10.13;;;;;;;23.13;53.40;101020.02;2135319;82;21540;-73
2022/10/18 09:42:25;;;;;;;20.00;11.63;;;;;;;23.27;53.22;101011.19;2133828;82;21549;-69
2022/10/18 09:45:39;;;;;;;16.25;10.43;;;;;;;23.11;52.76;101007.22;2130766;82;21121;-74
2022/10/18 09:49:12;;;;;;;15.32;10.60;;;;;;;23.20;53.20;101007.23;2134376;82;21037;-68
2022/10/18 09:52:21;;;;;;;16.65;10.85;;;;;;;23.46;52.60;101002.50;2134781;82;20998;-68
2022/10/18 09:55:27;;;;;;;16.62;10.45;;;;;;;23.55;52.38;100990.27;2132070;82;21086;-68
2022/10/18 09:58:43;;;;;;;22.58;11.28;;;;;;;23.44;52.43;100982.94;2122489;82;21113;-68
2022/10/18 10:01:44;;;;;;;17.10;9.93;;;;;;;23.37;52.53;100984.40;2138274;82;21533;-71
2022/10/18 10:04:49;;;;;;;19.23;11.00;;;;;;;23.38;52.72;100978.45;2126809;82;21632;-68
2022/10/18 10:08:01;;;;;;;19.85;11.15;;;;;;;23.52;52.69;100972.31;2134299;82;22278;-68
2022/10/18 10:11:03;;;;;;;19.32;10.55;;;;;;;23.59;52.61;100971.66;2135429;82;21116;-68
2022/10/18 10:14:12;;;;;;;15.53;11.00;;;;;;;23.42;52.41;100965.55;2127062;82;21105;-68
2022/10/18 10:17:25;;;;;;;20.55;10.85;;;;;;;23.42;52.73;100962.02;2123525;82;21084;-70
2022/10/18 10:20:53;;;;;;;16.42;10.70;;;;;;;23.45;52.49;100952.08;2110154;83;21021;-70
2022/10/18 10:23:57;;;;;;;19.25;10.23;;;;;;;23.55;52.05;100944.23;2108497;84;21100;-70
2022/10/18 10:27:06;;;;;;;15.85;10.43;;;;;;;23.75;52.49;100944.47;2081173;84;21008;-68
2022/10/18 10:30:25;;;;;;;15.08;10.20;;;;;;;23.94;51.50;100933.81;2103015;84;21718;-68
2022/10/18 10:33:38;;;;;;;13.55;9.53;;;;;;;24.07;51.96;100927.31;2110948;82;21513;-69
2022/10/18 10:36:53;;;;;;;14.90;10.13;;;;;;;24.18;51.62;100918.35;2116046;82;21084;-68
2022/10/18 10:40:14;;;;;;;14.05;9.53;;;;;;;24.21;51.47;100921.13;2110636;84;20932;-68
2022/10/18 10:43:31;;;;;;;15.43;10.38;;;;;;;24.29;51.58;100916.69;2063100;85;20984;-67
2022/10/18 10:46:35;;;;;;;15.45;9.78;;;;;;;24.35;51.36;100904.89;2061510;85;21083;-69
2022/10/18 10:49:45;;;;;;;16.62;10.18;;;;;;;24.18;50.78;100898.55;2099984;84;21018;-67
2022/10/18 10:52:47;;;;;;;17.60;10.08;;;;;;;23.87;50.41;100900.04;2102762;84;21096;-72
2022/10/18 10:55:55;;;;;;;16.55;9.93;;;;;;;23.31;50.29;100891.88;2105628;84;21057;-67
2022/10/18 10:59:16;;;;;;;16.07;10.35;;;;;;;22.95;50.88;100896.89;2111420;84;21108;-68
2022/10/18 11:02:31;;;;;;;15.13;9.83;;;;;;;22.66;51.40;100892.57;2107137;82;21037;-68
2022/10/18 11:05:46;;;;;;;15.85;10.10;;;;;;;22.57;51.90;100905.58;2081065;84;21045;-68
2022/10/18 11:08:50;;;;;;;15.08;10.08;;;;;;;22.73;52.39;100901.44;2105182;84;21010;-68
2022/10/18 11:12:21;;;;;;;16.20;9.18;;;;;;;22.83;51.66;100892.27;2105629;84;21097;-68
2022/10/18 11:15:31;;;;;;;12.65;9.58;;;;;;;22.69;51.67;100889.41;2111696;84;21014;-67
2022/10/18 11:18:36;;;;;;;13.28;9.20;;;;;;;22.55;52.13;100887.92;2115941;82;21069;-68
2022/10/18 11:21:39;;;;;;;14.38;9.43;;;;;;;22.48;52.25;100885.84;2127860;82;21540;-68
2022/10/18 11:24:40;;;;;;;15.68;9.83;;;;;;;22.45;52.40;100879.55;2127089;82;20977;-68
2022/10/18 11:27:55;;;;;;;16.27;9.83;;;;;;;22.30;52.46;100869.09;2125704;82;21111;-68
2022/10/18 11:31:37;;;;;;;14.05;9.98;;;;;;;22.21;52.79;100874.51;2114758;82;21037;-68
2022/10/18 11:35:06;;;;;;;12.63;9.90;;;;;;;22.10;52.87;100879.59;2126461;82;21549;-67
2022/10/18 11:38:41;;;;;;;12.68;9.63;;;;;;;21.97;52.94;100878.38;2129382;82;21574;-67
2022/10/18 11:42:09;;;;;;;12.10;9.93;;;;;;;21.99;53.21;100872.73;2131272;82;21075;-68
2022/10/18 11:45:28;;;;;;;14.87;10.18;;;;;;;21.99;53.21;100859.23;2121534;82;21092;-68
2022/10/18 11:49:25;;;;;;;19.57;10.32;;;;;;;21.93;53.17;100854.19;2122149;82;21810;-69
2022/10/18 11:53:07;;;;;;;15.38;9.18;;;;;;;21.87;53.36;100857.27;2122267;82;21468;-69
2022/10/18 11:56:17;;;;;;;15.05;9.00;;;;;;;21.84;53.57;100837.45;2124529;82;21026;-68
2022/10/18 11:59:39;;;;;;;12.82;8.95;;;;;;;21.78;53.46;100830.78;2124209;82;21038;-72
2022/10/18 12:02:55;;;;;;;14.03;9.35;;;;;;;21.75;53.67;100821.24;2121317;82;21069;-68
2022/10/18 12:06:01;;;;;;;13.15;10.38;;;;;;;21.82;53.66;100812.56;2128648;82;21033;-69
2022/10/18 12:09:17;;;;;;;13.95;10.15;;;;;;;21.86;53.27;100808.88;2130346;82;21029;-68
2022/10/18 12:12:36;;;;;;;14.05;10.10;;;;;;;21.79;53.37;100797.30;2129672;82;21838;-69
2022/10/18 12:15:39;;;;;;;13.48;9.75;;;;;;;21.67;53.69;100807.50;2125660;82;21051;-69
2022/10/18 12:18:58;;;;;;;15.32;9.83;;;;;;;21.81;53.74;100796.03;2128240;82;21089;-69
2022/10/18 12:22:19;;;;;;;15.40;10.78;;;;;;;21.97;53.70;100800.56;2129297;82;21586;-69
2022/10/18 12:25:21;;;;;;;17.10;10.40;;;;;;;22.02;53.51;100789.37;2135140;82;21501;-68
2022/10/18 12:28:33;;;;;;;13.05;10.25;;;;;;;21.90;53.15;100777.65;2131499;82;21014;-68
2022/10/18 12:31:59;;;;;;;16.37;10.00;;;;;;;21.91;53.26;100766.63;2134924;82;21118;-70
2022/10/18 12:35:04;;;;;;;14.98;8.98;;;;;;;22.07;53.46;100764.36;2128922;82;21576;-68
2022/10/18 12:38:26;;;;;;;15.85;9.30;;;;;;;22.08;53.02;100760.62;2124320;82;21852;-68
2022/10/18 12:41:31;;;;;;;15.70;9.93;;;;;;;21.92;52.94;100750.71;2137835;82;21064;-70
2022/10/18 12:44:34;;;;;;;13.80;8.63;;;;;;;21.77;52.90;100750.81;2130877;82;21037;-68
2022/10/18 12:47:36;;;;;;;16.60;9.25;;;;;;;21.68;53.33;100737.61;2132163;82;21135;-68
2022/10/18 12:50:41;;;;;;;15.85;9.68;;;;;;;21.62;53.22;100730.91;2139142;82;21024;-68
2022/10/18 12:53:46;;;;;;;20.52;11.65;;;;;;;21.55;53.41;100736.39;2126990;82;21064;-68
2022/10/18 12:56:49;;;;;;;13.70;9.40;;;;;;;21.54;53.61;100739.30;2132614;82;21022;-69
2022/10/18 12:59:51;;;;;;;15.15;10.88;;;;;;;21.49;53.69;100741.34;2117233;82;21706;-68
2022/10/18 13:03:16;;;;;;;15.68;10.38;;;;;;;21.45;53.68;100736.89;2126153;82;21025;-68
2022/10/18 13:06:18;;;;;;;14.95;10.35;;;;;;;21.31;53.90;100732.64;2125125;82;21053;-68
2022/10/18 13:09:20;;;;;;;12.95;9.03;;;;;;;21.22;54.13;100736.69;2133675;82;21020;-71
2022/10/18 13:12:27;;;;;;;12.53;9.15;;;;;;;21.14;54.37;100731.56;2137657;82;21038;-68
2022/10/18 13:15:43;;;;;;;18.42;8.90;;;;;;;21.13;54.62;100724.53;2139100;82;21096;-68
2022/10/18 13:19:02;;;;;;;11.08;8.80;;;;;;;21.08;54.62;100722.48;2126214;82;21084;-73
2022/10/18 13:22:36;;;;;;;12.30;8.83;;;;;;;21.11;54.74;100708.55;2128896;82;21495;-67
2022/10/18 13:25:57;;;;;;;31.07;18.00;;;;;;;21.11;54.67;100700.45;2091387;82;21094;-69
2022/10/18 13:29:19;;;;;;;17.73;11.55;;;;;;;21.09;54.80;100700.38;2123822;82;21120;-70
2022/10/18 13:33:05;;;;;;;19.20;9.18;;;;;;;21.10;54.96;100695.30;2094736;82;21056;-68
2022/10/18 13:36:20;;;;;;;15.20;9.20;;;;;;;21.13;54.93;100704.30;2121858;82;21513;-69
2022/10/18 13:39:21;;;;;;;14.07;8.85;;;;;;;21.20;55.13;100702.34;2122583;82;21021;-67
2022/10/18 13:42:32;;;;;;;10.05;8.65;;;;;;;21.36;55.46;100709.05;2124894;82;21081;-68
2022/10/18 13:45:44;;;;;;;13.53;8.38;;;;;;;21.49;55.34;100703.02;2118858;82;21018;-67
2022/10/18 13:48:52;;;;;;;14.80;9.05;;;;;;;21.60;54.95;100703.33;2127099;82;21512;-69
2022/10/18 13:52:36;;;;;;;12.28;8.28;;;;;;;21.62;54.82;100705.26;2125383;82;21516;-69
2022/10/18 13:56:18;;;;;;;12.95;8.18;;;;;;;21.67;54.49;100704.87;2122426;82;21069;-68
2022/10/18 14:00:04;;;;;;;14.13;8.80;;;;;;;21.71;54.42;100697.99;2122710;82;22163;-69
2022/10/18 14:03:34;;;;;;;15.80;8.58;;;;;;;21.74;54.28;100699.42;2125184;82;21136;-69
2022/10/18 14:06:42;;;;;;;13.08;8.55;;;;;;;21.71;53.45;100691.77;2119178;82;21073;-69
2022/10/18 14:09:56;;;;;;;12.40;8.98;;;;;;;21.65;53.48;100698.05;2124016;82;21530;-75
2022/10/18 14:12:59;;;;;;;13.88;9.50;;;;;;;21.58;53.16;100701.37;2118005;82;21531;-69
2022/10/18 14:16:23;;;;;;;17.12;8.90;;;;;;;21.39;52.90;100701.87;2089181;82;21047;-71
2022/10/18 14:19:55;;;;;;;10.18;8.18;;;;;;;21.20;53.06;100697.80;2085793;82;21182;-69
2022/10/18 14:23:29;;;;;;;13.05;8.48;;;;;;;20.96;53.43;100722.39;2131963;82;21077;-69
2022/10/18 14:26:31;;;;;;;12.50;8.40;;;;;;;20.72;53.88;100738.02;2135749;82;21580;-71